OOMS

Muscat International Airport

Airport
ICAO code
OOMS
IATA Code
MCT
Summary
ICAO Region
MID
ICAO Territory
Location

Seeb, Muscat

Serving
Muscat
Coordinates
23° 35' 36" N , 58° 16' 54" E
KCC
Metar
Observation
OOMS 021450Z 01003KT CAVOK 26/20 Q1013 NOSIG
Station
Seeb, International Airport
Date/Time
2022-12-02 14:50:00
Wind direction
10°
Wind speed
03 kts
Lowest cloud amount
clouds and visibility OK
Temperature
26°C
Dew point
20°C
Humidity
69%
QNH
1013 hPa
Weather condition
n/a

International airport serving Muscat, the capital of Oman.

Climatology

Hot Desert Climate (Köppen climate classification BWh)

Runways

Designator Length Width Surface Rops
2/20 750 30 GRE Yes/Yes
8/26 3589 45 ASP Yes/Yes

Airport map

Aerial View

SKYbrary Partners:

Safety knowledge contributed by: